Spirit Of Ulysses — MMEX — position and weather

sailwx.info

Track history (hours):
 
Tides and Currents Weather Stations Pressure Air Temp Water Temp Dewpoint Dewpoint Depression Visibility Wind Speed Wind Dir Waves Ship Positions

Spirit Of Ulysses

Last reported at 2018-Jul-08 13:59 UTC. Time now 2018-Jul-17 15:20 UTC.
Position N 39°34' E 002°38'.
Warning: this ship's position is 9 days out of date.

Length 16 m; draft 2.5 m.

Type: Other ship. MMSI: 235051636.

Date/timePositionNaut miles runAvg speedWind from/ knotsBaromVisibWave heightAir tempDewpointWater temp
2018-Jul-08 13:59N 39°34' E 002°38'0 0.0
2018-Jul-08 13:30N 39°34' E 002°38'0 0.0
2018-Jul-08 13:00N 39°34' E 002°38'0 0.9
2018-Jul-08 12:30N 39°33' E 002°38'4 7.3
2018-Jul-08 12:00N 39°30' E 002°36'4 8.6
2018-Jul-08 11:29N 39°27' E 002°31'  
2018-Jul-04 05:12N 37°52' W 000°34'2 8.4
2018-Jul-04 05:00N 37°52' W 000°36'4 8.3
2018-Jul-04 04:31N 37°51' W 000°41'3 6.9
2018-Jul-04 04:00N 37°49' W 000°45'0 0.0
2018-Jul-03 15:29N 37°49' W 000°45'0 0.0
2018-Jul-03 14:57N 37°49' W 000°45'0 0.0
2018-Jul-03 14:29N 37°49' W 000°45'0 0.0
2018-Jul-03 14:00N 37°49' W 000°45'0 0.0
2018-Jul-02 18:00N 37°49' W 000°45'  
Track history (hours):
 
Tides and Currents Weather Stations Pressure Air Temp Water Temp Dewpoint Dewpoint Depression Visibility Wind Speed Wind Dir Waves Ship Positions

Spirit Of Ulysses

Last reported at 2018-Jul-08 13:59 UTC. Time now 2018-Jul-17 15:20 UTC.
Position N 39°34' E 002°38'.
Warning: this ship's position is 9 days out of date.

Length 16 m; draft 2.5 m.

Type: Other ship. MMSI: 235051636.

Date/timePositionNaut miles runAvg speedWind from/ knotsBaromVisibWave heightAir tempDewpointWater temp
2018-Jul-08 13:59N 39°34' E 002°38'0 0.0
2018-Jul-08 13:30N 39°34' E 002°38'0 0.0
2018-Jul-08 13:00N 39°34' E 002°38'0 0.9
2018-Jul-08 12:30N 39°33' E 002°38'4 7.3
2018-Jul-08 12:00N 39°30' E 002°36'4 8.6
2018-Jul-08 11:29N 39°27' E 002°31'  
2018-Jul-04 05:12N 37°52' W 000°34'2 8.4
2018-Jul-04 05:00N 37°52' W 000°36'4 8.3
2018-Jul-04 04:31N 37°51' W 000°41'3 6.9
2018-Jul-04 04:00N 37°49' W 000°45'0 0.0
2018-Jul-03 15:29N 37°49' W 000°45'0 0.0
2018-Jul-03 14:57N 37°49' W 000°45'0 0.0
2018-Jul-03 14:29N 37°49' W 000°45'0 0.0
2018-Jul-03 14:00N 37°49' W 000°45'0 0.0
2018-Jul-02 18:00N 37°49' W 000°45'  

Dump ship's entire track history